Time;durP1;ratioP1;P1;durP2;ratioP2;P2;SDS_P1;SDS_P2;PMS_P1;PMS_P2;Temp;Humidity;BMP_temperature;BMP_pressure;BME280_temperature;BME280_humidity;BME280_pressure;Samples;Min_cycle;Max_cycle;Signal;HPM_P1;HPM_P2
2022/08/08 00:00:49;;;;;;;5.47;1.52;;;;;;;14.97;100.00;98704.55;1660226;85;28137;-86
2022/08/08 00:03:31;;;;;;;3.30;1.42;;;;;;;14.97;100.00;98707.19;1626925;85;28035;-85
2022/08/08 00:06:06;;;;;;;2.27;1.47;;;;;;;14.97;100.00;98708.50;1637206;86;28049;-89
2022/08/08 00:08:47;;;;;;;4.25;2.45;;;;;;;14.97;100.00;98699.28;1647884;85;28534;-86
2022/08/08 00:11:21;;;;;;;4.42;1.70;;;;;;;14.97;100.00;98697.13;1633082;85;28182;-90
2022/08/08 00:13:53;;;;;;;3.45;1.80;;;;;;;14.95;100.00;98695.92;1643347;84;28185;-89
2022/08/08 00:16:25;;;;;;;4.58;1.50;;;;;;;14.97;100.00;98693.17;1641418;85;28292;-90
2022/08/08 00:18:58;;;;;;;3.20;1.32;;;;;;;14.97;100.00;98699.28;1645173;84;28158;-89
2022/08/08 00:21:34;;;;;;;2.35;1.40;;;;;;;14.97;100.00;98692.69;1670916;83;28178;-89
2022/08/08 00:24:13;;;;;;;3.80;1.60;;;;;;;14.97;100.00;98690.05;1642380;85;28086;-87
2022/08/08 00:26:45;;;;;;;4.62;1.50;;;;;;;14.99;100.00;98691.25;1684120;84;28209;-88
2022/08/08 00:29:30;;;;;;;2.05;1.60;;;;;;;15.00;100.00;98692.93;1711143;81;28151;-87
2022/08/08 00:32:01;;;;;;;2.08;1.70;;;;;;;15.01;100.00;98691.46;1693909;82;28046;-88
2022/08/08 00:37:21;;;;;;;2.03;1.47;;;;;;;15.00;100.00;98688.47;1686888;82;28083;-87
2022/08/08 00:39:57;;;;;;;3.60;1.80;;;;;;;14.99;100.00;98690.77;1702817;82;28013;-87
2022/08/08 00:42:34;;;;;;;8.15;2.42;;;;;;;14.97;100.00;98689.22;1661039;83;28154;-87
2022/08/08 00:45:22;;;;;;;2.80;1.50;;;;;;;14.96;100.00;98690.17;1667247;82;28090;-87
2022/08/08 00:48:10;;;;;;;3.58;1.62;;;;;;;14.94;100.00;98679.78;1669427;83;28194;-87
2022/08/08 00:51:13;;;;;;;4.90;1.60;;;;;;;14.94;100.00;98685.53;1695700;81;28108;-86
2022/08/08 00:54:08;;;;;;;2.15;1.55;;;;;;;14.95;100.00;98692.45;1683711;82;28079;-86
2022/08/08 00:57:10;;;;;;;4.47;1.65;;;;;;;14.96;100.00;98691.49;1685703;81;28248;-86
2022/08/08 00:59:45;;;;;;;3.92;1.05;;;;;;;14.94;100.00;98685.05;1692424;81;28066;-89
2022/08/08 01:02:20;;;;;;;2.35;1.67;;;;;;;14.93;100.00;98676.79;1689034;81;28086;-89
2022/08/08 01:05:07;;;;;;;2.75;1.37;;;;;;;14.95;100.00;98677.95;1682092;81;28186;-89
2022/08/08 01:07:54;;;;;;;3.55;1.60;;;;;;;14.96;100.00;98680.95;1686164;82;28167;-86
2022/08/08 01:10:53;;;;;;;1.92;1.40;;;;;;;14.99;100.00;98679.39;1686371;83;28114;-86
2022/08/08 01:13:57;;;;;;;2.67;1.40;;;;;;;14.99;100.00;98681.55;1682537;82;28167;-86
2022/08/08 01:16:44;;;;;;;4.92;1.42;;;;;;;15.01;100.00;98685.35;1678937;82;28103;-85
2022/08/08 01:19:38;;;;;;;2.62;1.60;;;;;;;15.03;100.00;98675.53;1686707;82;28101;-87
2022/08/08 01:22:38;;;;;;;3.60;1.52;;;;;;;15.04;100.00;98666.66;1685265;82;28119;-87
2022/08/08 01:25:31;;;;;;;4.20;1.27;;;;;;;15.04;100.00;98666.66;1690928;81;28104;-86
2022/08/08 01:28:15;;;;;;;2.85;1.70;;;;;;;15.05;100.00;98672.30;1655284;84;28200;-87
2022/08/08 01:30:54;;;;;;;2.90;1.50;;;;;;;15.10;100.00;98672.73;1692489;82;28138;-87
2022/08/08 01:33:30;;;;;;;2.67;1.30;;;;;;;15.11;100.00;98666.47;1698792;82;28035;-87
2022/08/08 01:36:33;;;;;;;2.77;1.67;;;;;;;15.11;100.00;98662.52;1673799;82;28260;-87
2022/08/08 01:39:22;;;;;;;5.35;1.50;;;;;;;15.09;100.00;98652.61;1683189;81;28106;-87
2022/08/08 01:42:12;;;;;;;4.58;1.30;;;;;;;15.10;100.00;98658.72;1638180;85;28101;-87
2022/08/08 01:44:45;;;;;;;5.60;1.50;;;;;;;15.09;100.00;98665.78;1665067;83;28137;-86
2022/08/08 01:47:24;;;;;;;3.27;1.70;;;;;;;15.12;100.00;98664.20;1651804;84;28010;-86
2022/08/08 01:50:10;;;;;;;4.05;1.80;;;;;;;15.14;100.00;98658.80;1672755;83;28071;-86
2022/08/08 01:52:56;;;;;;;1.75;1.20;;;;;;;15.16;100.00;98657.72;1653822;84;28021;-86
2022/08/08 01:55:47;;;;;;;3.45;1.40;;;;;;;15.14;100.00;98656.17;1589399;86;28141;-87
2022/08/08 01:58:35;;;;;;;1.65;1.05;;;;;;;15.11;100.00;98653.30;1650571;84;28193;-87
2022/08/08 02:01:23;;;;;;;3.05;1.60;;;;;;;15.10;100.00;98659.56;1668464;83;28098;-87
2022/08/08 02:04:17;;;;;;;4.83;1.60;;;;;;;15.05;100.00;98649.89;1674646;83;28155;-87
2022/08/08 02:07:15;;;;;;;2.42;1.25;;;;;;;15.02;100.00;98652.28;1660089;84;28277;-86
2022/08/08 02:09:45;;;;;;;2.33;1.42;;;;;;;15.05;100.00;98653.84;1622186;85;28094;-89
2022/08/08 02:12:20;;;;;;;2.83;1.62;;;;;;;15.00;100.00;98651.56;1668412;84;28028;-89
2022/08/08 02:15:08;;;;;;;1.90;1.37;;;;;;;15.01;100.00;98658.99;1656078;85;28163;-88
2022/08/08 02:17:49;;;;;;;3.42;1.67;;;;;;;14.97;100.00;98665.02;1662785;83;28183;-88
2022/08/08 02:20:28;;;;;;;2.37;1.20;;;;;;;14.94;100.00;98664.45;1662233;83;28185;-88
2022/08/08 02:23:10;;;;;;;2.85;1.10;;;;;;;14.92;100.00;98666.37;1657639;84;28103;-88
2022/08/08 02:25:49;;;;;;;3.80;1.22;;;;;;;14.92;100.00;98663.25;1625275;85;28241;-87
2022/08/08 02:28:24;;;;;;;1.87;1.45;;;;;;;14.91;100.00;98672.59;1618793;85;28136;-88
2022/08/08 02:31:03;;;;;;;1.67;1.20;;;;;;;14.90;100.00;98684.09;1625100;85;28000;-87
2022/08/08 02:33:39;;;;;;;2.42;1.15;;;;;;;14.92;100.00;98680.86;1669950;83;28238;-89
2022/08/08 02:36:34;;;;;;;2.52;1.27;;;;;;;14.92;100.00;98677.75;1679366;82;28196;-89
2022/08/08 02:39:07;;;;;;;2.80;1.32;;;;;;;14.89;100.00;98672.72;1674778;82;28060;-88
2022/08/08 02:41:43;;;;;;;2.10;1.10;;;;;;;14.91;100.00;98682.66;1692049;82;28151;-90
2022/08/08 02:44:33;;;;;;;2.30;1.15;;;;;;;14.92;100.00;98681.70;1690427;82;27995;-89
2022/08/08 02:47:18;;;;;;;3.33;1.00;;;;;;;14.91;100.00;98685.77;1666208;82;28156;-90
2022/08/08 02:49:54;;;;;;;3.30;1.30;;;;;;;14.89;100.00;98681.94;1664584;82;28066;-89
2022/08/08 02:52:57;;;;;;;1.30;1.00;;;;;;;14.90;100.00;98685.41;1660039;84;28033;-89
2022/08/08 02:55:39;;;;;;;4.65;1.10;;;;;;;14.90;100.00;98683.61;1657094;85;28092;-89
2022/08/08 02:58:23;;;;;;;;;;;;;;;14.90;100.00;98690.20;1696553;81;28101;-87
2022/08/08 03:01:08;;;;;;;2.02;1.10;;;;;;;14.88;100.00;98694.78;1681217;82;24435;-86
2022/08/08 03:03:47;;;;;;;1.45;1.10;;;;;;;14.91;100.00;98687.92;1681000;82;28115;-86
2022/08/08 03:06:47;;;;;;;4.20;1.22;;;;;;;14.96;100.00;98684.91;1664899;84;28042;-86
2022/08/08 03:09:39;;;;;;;3.60;1.37;;;;;;;14.97;100.00;98685.27;1652221;84;28081;-86
2022/08/08 03:12:27;;;;;;;2.17;1.20;;;;;;;14.94;100.00;98689.01;1661229;83;28092;-87
2022/08/08 03:15:15;;;;;;;3.15;1.50;;;;;;;14.93;100.00;98696.55;1662596;84;28262;-89
2022/08/08 03:18:02;;;;;;;1.20;1.10;;;;;;;14.92;100.00;98696.19;1726027;81;28195;-86
2022/08/08 03:20:48;;;;;;;1.52;1.10;;;;;;;14.90;100.00;98691.52;1734885;80;28098;-89
2022/08/08 03:23:14;;;;;;;3.20;1.17;;;;;;;14.90;100.00;98698.59;1734539;80;28119;-88
2022/08/08 03:25:43;;;;;;;3.90;1.20;;;;;;;14.93;100.00;98699.19;1679857;81;28119;-85
2022/08/08 03:28:16;;;;;;;3.45;1.20;;;;;;;15.01;100.00;98702.48;1745747;80;28078;-86
2022/08/08 03:30:44;;;;;;;1.67;1.20;;;;;;;15.06;100.00;98705.56;1728953;80;28123;-86
2022/08/08 03:33:17;;;;;;;2.10;1.10;;;;;;;15.07;100.00;98700.17;1748760;80;28088;-86
2022/08/08 03:35:49;;;;;;;2.75;1.10;;;;;;;15.06;100.00;98695.86;1740750;80;28027;-87
2022/08/08 03:38:17;;;;;;;2.33;1.05;;;;;;;15.03;100.00;98697.93;1728431;81;28082;-87
2022/08/08 03:40:51;;;;;;;2.83;1.10;;;;;;;15.00;100.00;98704.80;1708699;81;28010;-88
2022/08/08 03:43:17;;;;;;;3.15;0.93;;;;;;;14.96;100.00;98699.40;1754111;79;28123;-88
2022/08/08 03:45:44;;;;;;;0.93;0.90;;;;;;;14.92;100.00;98705.42;1720277;80;28103;-88
2022/08/08 03:48:11;;;;;;;2.52;1.05;;;;;;;14.90;100.00;98693.31;1733378;81;28014;-89
2022/08/08 03:50:43;;;;;;;2.30;1.30;;;;;;;14.88;100.00;98698.73;1729080;80;28117;-89
2022/08/08 03:53:11;;;;;;;1.80;1.02;;;;;;;14.89;100.00;98703.02;1720202;81;28293;-89
2022/08/08 03:55:43;;;;;;;1.40;0.93;;;;;;;14.92;100.00;98706.73;1763459;78;28122;-88
2022/08/08 03:58:10;;;;;;;1.47;0.90;;;;;;;14.88;100.00;98707.13;1771223;79;28211;-85
2022/08/08 04:00:36;;;;;;;3.08;1.20;;;;;;;14.85;100.00;98704.25;1747893;79;28102;-84
2022/08/08 04:03:05;;;;;;;2.50;1.00;;;;;;;14.80;100.00;98703.80;1743970;80;28110;-85
2022/08/08 04:05:37;;;;;;;2.72;1.20;;;;;;;14.77;100.00;98707.17;1767844;78;28182;-85
2022/08/08 04:08:06;;;;;;;1.45;1.02;;;;;;;14.75;100.00;98705.13;1767965;78;28244;-85
2022/08/08 04:10:34;;;;;;;4.08;1.22;;;;;;;14.73;100.00;98702.62;1727896;80;28246;-85
2022/08/08 04:13:02;;;;;;;1.72;1.10;;;;;;;14.72;100.00;98704.92;1700153;81;28103;-87
2022/08/08 04:15:28;;;;;;;5.60;1.35;;;;;;;14.73;100.00;98707.08;1721056;81;28121;-87
2022/08/08 04:17:54;;;;;;;1.47;1.10;;;;;;;14.70;100.00;98710.78;1729043;80;28075;-85
2022/08/08 04:20:20;;;;;;;2.65;1.20;;;;;;;14.68;100.00;98707.91;1761415;78;28158;-86
2022/08/08 04:22:46;;;;;;;1.67;1.10;;;;;;;14.65;100.00;98703.27;1752856;78;42280;-89
2022/08/08 04:25:12;;;;;;;2.20;1.17;;;;;;;14.65;100.00;98705.91;1759463;78;27995;-88
2022/08/08 04:27:38;;;;;;;2.87;1.50;;;;;;;14.63;100.00;98715.72;1758655;79;42215;-87
2022/08/08 04:30:06;;;;;;;2.05;1.10;;;;;;;14.63;100.00;98718.35;1729849;80;28222;-86
2022/08/08 04:32:32;;;;;;;1.27;1.10;;;;;;;14.63;100.00;98721.46;1730104;80;28077;-89
2022/08/08 04:34:59;;;;;;;1.70;1.20;;;;;;;14.63;100.00;98725.41;1758929;78;28213;-86
2022/08/08 04:37:25;;;;;;;3.50;1.20;;;;;;;14.61;100.00;98728.20;1732392;80;28167;-85
2022/08/08 04:39:55;;;;;;;1.42;1.05;;;;;;;14.62;100.00;98725.05;1722656;80;28117;-86
2022/08/08 04:42:24;;;;;;;2.50;1.07;;;;;;;14.65;100.00;98721.70;1755172;79;36853;-87
2022/08/08 04:44:54;;;;;;;3.70;1.42;;;;;;;14.69;100.00;98724.08;1771657;78;28100;-89
2022/08/08 04:47:19;;;;;;;1.45;1.00;;;;;;;14.73;100.00;98721.57;1772037;78;28119;-88
2022/08/08 04:49:45;;;;;;;1.55;0.98;;;;;;;14.76;100.00;98732.69;1770477;78;28071;-89
2022/08/08 04:52:12;;;;;;;1.85;1.20;;;;;;;14.84;100.00;98730.72;1770051;78;28190;-88
2022/08/08 04:54:38;;;;;;;2.62;1.10;;;;;;;14.89;100.00;98731.20;1759762;78;28249;-86
2022/08/08 04:57:04;;;;;;;3.65;1.20;;;;;;;14.90;100.00;98733.69;1727166;80;28070;-88
2022/08/08 04:59:30;;;;;;;2.37;1.27;;;;;;;14.93;100.00;98735.25;1769026;78;28042;-85
2022/08/08 05:01:56;;;;;;;2.15;1.27;;;;;;;14.93;100.00;98736.09;1732595;80;28050;-86
2022/08/08 05:04:23;;;;;;;3.00;1.20;;;;;;;14.96;100.00;98743.73;1732192;81;28161;-85
2022/08/08 05:06:49;;;;;;;3.85;1.20;;;;;;;14.99;100.00;98738.69;1713337;80;28087;-88
2022/08/08 05:09:15;;;;;;;1.92;1.35;;;;;;;15.05;100.00;98742.95;1726152;80;28095;-89
2022/08/08 05:11:44;;;;;;;2.40;1.10;;;;;;;15.13;100.00;98737.05;1710908;80;28152;-87
2022/08/08 05:14:11;;;;;;;1.10;1.00;;;;;;;15.18;100.00;98745.41;1743119;79;28060;-89
2022/08/08 05:16:37;;;;;;;3.95;1.47;;;;;;;15.21;100.00;98742.53;1756414;78;28083;-89
2022/08/08 05:19:03;;;;;;;3.42;1.40;;;;;;;15.23;100.00;98743.70;1770552;79;28191;-89
2022/08/08 05:21:29;;;;;;;2.60;1.32;;;;;;;15.28;100.00;98744.98;1763192;78;28049;-89
2022/08/08 05:23:56;;;;;;;3.02;1.20;;;;;;;15.36;100.00;98741.23;1757770;79;28072;-88
2022/08/08 05:26:23;;;;;;;1.62;1.00;;;;;;;15.42;100.00;98743.84;1764341;78;27997;-86
2022/08/08 05:28:49;;;;;;;3.27;1.10;;;;;;;15.45;100.00;98739.61;1762873;78;28448;-86
2022/08/08 05:31:15;;;;;;;2.00;1.37;;;;;;;15.45;100.00;98740.92;1724032;80;28017;-86
2022/08/08 05:33:41;;;;;;;2.45;1.32;;;;;;;15.43;100.00;98747.67;1708521;81;28046;-86
2022/08/08 05:36:10;;;;;;;2.70;1.07;;;;;;;15.50;100.00;98746.65;1721459;81;28118;-86
2022/08/08 05:38:40;;;;;;;6.22;1.60;;;;;;;15.50;100.00;98746.17;1722088;81;28187;-87
2022/08/08 05:41:07;;;;;;;2.85;1.12;;;;;;;15.48;100.00;98749.44;1746330;78;28122;-86
2022/08/08 05:43:33;;;;;;;3.00;1.25;;;;;;;15.48;100.00;98749.92;1761647;78;28126;-86
2022/08/08 05:46:03;;;;;;;3.98;1.40;;;;;;;15.49;100.00;98755.55;1761803;78;28090;-89
2022/08/08 05:48:33;;;;;;;3.35;1.42;;;;;;;15.54;100.00;98759.98;1760558;78;28094;-90
2022/08/08 05:50:59;;;;;;;5.30;1.52;;;;;;;15.59;100.00;98752.99;1763497;78;28270;-89
2022/08/08 05:53:25;;;;;;;2.55;2.30;;;;;;;15.64;100.00;98752.11;1787422;78;28080;-87
2022/08/08 05:55:53;;;;;;;4.12;1.20;;;;;;;15.68;100.00;98754.36;1753823;78;43999;-86
2022/08/08 05:58:30;;;;;;;3.33;1.32;;;;;;;15.70;100.00;98758.19;1734598;81;28279;-86
2022/08/08 06:01:04;;;;;;;2.87;1.70;;;;;;;15.71;100.00;98759.87;1725982;80;28159;-86
2022/08/08 06:03:30;;;;;;;2.42;1.52;;;;;;;15.72;100.00;98765.47;1757282;79;28101;-86
2022/08/08 06:05:56;;;;;;;1.80;1.27;;;;;;;15.74;100.00;98763.55;1768579;78;28350;-86
2022/08/08 06:08:26;;;;;;;2.58;1.40;;;;;;;15.74;100.00;98768.34;1754755;78;45365;-86
2022/08/08 06:11:06;;;;;;;4.90;1.30;;;;;;;15.74;100.00;98766.19;1756992;78;28119;-86
2022/08/08 06:13:33;;;;;;;1.82;1.40;;;;;;;15.75;100.00;98766.55;1723175;80;47937;-86
2022/08/08 06:15:59;;;;;;;1.32;1.12;;;;;;;15.76;100.00;98761.63;1764471;78;27991;-87
2022/08/08 06:18:28;;;;;;;3.58;1.60;;;;;;;15.77;100.00;98761.95;1765730;78;28135;-86
2022/08/08 06:20:59;;;;;;;3.40;1.17;;;;;;;15.78;100.00;98764.47;1760909;78;28091;-86
2022/08/08 06:23:26;;;;;;;3.77;1.27;;;;;;;15.83;100.00;98762.27;1724637;81;28105;-87
2022/08/08 06:25:57;;;;;;;2.08;1.20;;;;;;;15.87;100.00;98765.50;1731574;80;28089;-86
2022/08/08 06:28:40;;;;;;;1.97;1.30;;;;;;;15.89;100.00;98763.55;1764767;79;28104;-87
2022/08/08 06:31:09;;;;;;;2.05;1.35;;;;;;;15.92;100.00;98759.82;1775831;78;28121;-86
2022/08/08 06:33:51;;;;;;;1.62;1.10;;;;;;;15.93;100.00;98762.81;1737584;80;28282;-86
2022/08/08 06:36:24;;;;;;;4.92;1.82;;;;;;;15.95;100.00;98764.82;1748198;80;28133;-87
2022/08/08 06:38:54;;;;;;;2.47;1.40;;;;;;;16.04;100.00;98770.13;1725400;80;28089;-87
2022/08/08 06:41:22;;;;;;;3.37;1.90;;;;;;;16.15;100.00;98773.99;1705703;81;28118;-87
2022/08/08 06:43:52;;;;;;;3.55;1.35;;;;;;;16.25;100.00;98778.02;1684157;81;28064;-87
2022/08/08 06:46:24;;;;;;;2.70;1.20;;;;;;;16.30;100.00;98778.45;1692007;81;28073;-87
2022/08/08 06:48:49;;;;;;;2.58;1.35;;;;;;;16.35;100.00;98778.03;1736496;80;28129;-87
2022/08/08 06:51:16;;;;;;;4.62;1.40;;;;;;;16.43;100.00;98771.58;1735562;80;42212;-88
2022/08/08 06:53:44;;;;;;;2.42;1.20;;;;;;;16.45;100.00;98768.32;1761468;78;28095;-87
2022/08/08 06:56:12;;;;;;;3.35;1.77;;;;;;;16.50;100.00;98768.75;1774033;78;28023;-90
2022/08/08 06:58:39;;;;;;;4.55;1.42;;;;;;;16.51;100.00;98766.46;1763619;78;28203;-91
2022/08/08 07:01:09;;;;;;;3.80;1.75;;;;;;;16.60;100.00;98765.18;1759190;78;28085;-87
2022/08/08 07:03:52;;;;;;;2.00;1.00;;;;;;;16.71;100.00;98765.06;1738213;80;28066;-87
2022/08/08 07:06:21;;;;;;;1.35;1.20;;;;;;;16.82;100.00;98768.06;1720487;80;28214;-87
2022/08/08 07:08:55;;;;;;;2.00;1.10;;;;;;;16.92;100.00;98769.38;1718309;81;28089;-87
2022/08/08 07:11:27;;;;;;;3.30;1.20;;;;;;;16.96;100.00;98765.51;1712182;81;28086;-87
2022/08/08 07:13:57;;;;;;;2.17;1.03;;;;;;;17.01;100.00;98779.14;1757667;79;28191;-86
2022/08/08 07:16:37;;;;;;;1.85;1.07;;;;;;;17.05;100.00;98780.52;1747047;79;28117;-87
2022/08/08 07:19:31;;;;;;;2.92;1.00;;;;;;;17.12;100.00;98779.00;1733467;80;28191;-87
2022/08/08 07:22:05;;;;;;;2.12;1.10;;;;;;;17.17;100.00;98783.38;1735508;80;28219;-87
2022/08/08 07:24:51;;;;;;;2.80;1.12;;;;;;;17.23;100.00;98779.34;1744812;78;28080;-88
2022/08/08 07:27:24;;;;;;;1.72;0.90;;;;;;;17.24;100.00;98779.19;1757903;78;28076;-87
2022/08/08 07:29:51;;;;;;;1.67;1.00;;;;;;;17.28;100.00;98783.72;1727565;80;28196;-87
2022/08/08 07:32:18;;;;;;;1.80;0.95;;;;;;;17.29;100.00;98790.17;1727841;81;28082;-89
2022/08/08 07:34:49;;;;;;;2.65;0.90;;;;;;;17.37;100.00;98788.16;1678053;82;28094;-90
2022/08/08 07:37:22;;;;;;;1.00;0.70;;;;;;;17.48;100.00;98791.49;1736504;80;28187;-90
2022/08/08 07:39:54;;;;;;;2.98;1.00;;;;;;;17.63;100.00;98791.91;1719044;81;28090;-87
2022/08/08 07:42:28;;;;;;;1.67;0.98;;;;;;;17.75;100.00;98796.06;1690201;81;28128;-87
2022/08/08 07:44:54;;;;;;;1.45;0.78;;;;;;;17.87;100.00;98796.25;1754487;78;28469;-87
2022/08/08 07:47:20;;;;;;;2.98;1.17;;;;;;;17.95;100.00;98797.66;1773571;78;28109;-87
2022/08/08 07:49:46;;;;;;;3.27;0.85;;;;;;;18.07;100.00;98798.81;1747203;79;28102;-87
2022/08/08 07:52:14;;;;;;;1.55;1.02;;;;;;;18.12;100.00;98796.07;1738108;80;28035;-87
2022/08/08 07:54:50;;;;;;;2.15;1.07;;;;;;;18.18;100.00;98790.19;1732305;80;28079;-87
2022/08/08 07:57:37;;;;;;;3.60;1.22;;;;;;;18.28;100.00;98797.60;1760692;79;28118;-87
2022/08/08 08:00:07;;;;;;;3.08;1.20;;;;;;;18.36;100.00;98796.39;1747601;78;28113;-87
2022/08/08 08:02:39;;;;;;;2.15;0.95;;;;;;;18.45;100.00;98790.69;1762099;78;28174;-87
2022/08/08 08:05:21;;;;;;;1.85;1.00;;;;;;;18.52;100.00;98782.49;1778753;78;28021;-87
2022/08/08 08:07:49;;;;;;;;;;;;;;;18.62;100.00;98784.62;1782746;78;28116;-87
2022/08/08 08:10:17;;;;;;;2.45;0.88;;;;;;;18.76;100.00;98785.94;1760913;78;21897;-86
2022/08/08 08:12:54;;;;;;;3.12;1.02;;;;;;;18.78;100.00;98782.14;1765248;78;28113;-86
2022/08/08 08:15:24;;;;;;;1.30;0.80;;;;;;;18.80;100.00;98784.16;1657762;82;28254;-87
2022/08/08 08:17:53;;;;;;;2.47;1.00;;;;;;;18.83;100.00;98775.55;1729429;80;28112;-87
2022/08/08 08:20:21;;;;;;;5.03;1.00;;;;;;;18.91;100.00;98784.92;1731900;80;28139;-87
2022/08/08 08:22:47;;;;;;;2.00;1.00;;;;;;;19.05;100.00;98784.38;1738902;80;28086;-88
2022/08/08 08:25:13;;;;;;;2.17;0.88;;;;;;;19.24;100.00;98784.23;1706479;81;27988;-87
2022/08/08 08:27:50;;;;;;;2.15;0.90;;;;;;;19.38;100.00;98788.14;1730048;80;28081;-89
2022/08/08 08:30:16;;;;;;;1.62;0.90;;;;;;;19.45;100.00;98795.38;1725999;81;28182;-87
2022/08/08 08:32:42;;;;;;;4.22;1.10;;;;;;;19.52;100.00;98799.09;1707902;82;28125;-87
2022/08/08 08:35:09;;;;;;;2.20;0.88;;;;;;;19.55;100.00;98805.41;1707643;81;28150;-87
2022/08/08 08:37:35;;;;;;;1.77;0.75;;;;;;;19.60;100.00;98799.63;1771469;78;28250;-87
2022/08/08 08:40:01;;;;;;;5.65;0.98;;;;;;;19.68;100.00;98802.85;1758908;79;28135;-87
2022/08/08 08:42:29;;;;;;;5.08;0.90;;;;;;;19.82;100.00;98804.92;1762442;78;28013;-87
2022/08/08 08:44:56;;;;;;;2.12;0.80;;;;;;;19.97;100.00;98806.84;1757296;78;28170;-87
2022/08/08 08:47:24;;;;;;;2.55;0.62;;;;;;;20.12;100.00;98801.80;1761444;79;28089;-87
2022/08/08 08:49:50;;;;;;;1.77;0.80;;;;;;;20.29;100.00;98809.36;1771333;78;28088;-87
2022/08/08 08:52:16;;;;;;;0.85;0.60;;;;;;;20.40;100.00;98805.12;1776933;78;28080;-87
2022/08/08 08:54:44;;;;;;;1.92;0.80;;;;;;;20.50;100.00;98804.48;1780137;79;28093;-87
2022/08/08 08:57:11;;;;;;;1.65;0.57;;;;;;;20.67;100.00;98802.22;1758717;78;28093;-88
2022/08/08 08:59:40;;;;;;;2.12;0.82;;;;;;;20.79;100.00;98799.57;1762220;78;28118;-87
2022/08/08 09:02:10;;;;;;;1.12;0.65;;;;;;;20.88;100.00;98797.28;1767565;79;28082;-91
2022/08/08 09:04:37;;;;;;;1.55;0.60;;;;;;;20.98;100.00;98802.95;1762537;79;28067;-87
2022/08/08 09:07:27;;;;;;;0.60;0.60;;;;;;;21.00;100.00;98801.77;1757528;79;28015;-87
2022/08/08 09:09:53;;;;;;;3.55;0.60;;;;;;;21.10;100.00;98802.47;1752658;78;28188;-87
2022/08/08 09:12:25;;;;;;;1.10;0.60;;;;;;;21.14;100.00;98798.52;1734177;80;28068;-87
2022/08/08 09:14:54;;;;;;;2.47;0.90;;;;;;;21.26;99.77;98805.18;1738738;80;28212;-86
2022/08/08 09:17:23;;;;;;;1.75;0.55;;;;;;;21.40;99.00;98810.83;1727772;81;28155;-87
2022/08/08 09:19:52;;;;;;;1.40;0.45;;;;;;;21.52;98.42;98804.17;1714190;80;28193;-87
2022/08/08 09:22:21;;;;;;;1.50;0.53;;;;;;;21.59;97.23;98806.01;1714765;80;28112;-87
2022/08/08 09:24:51;;;;;;;1.05;0.42;;;;;;;21.66;96.06;98802.16;1730679;80;28250;-88
2022/08/08 09:27:20;;;;;;;1.45;0.53;;;;;;;21.70;94.69;98808.33;1684368;81;28119;-87
2022/08/08 09:29:53;;;;;;;3.22;0.53;;;;;;;21.75;93.81;98809.65;1717128;81;28251;-87
2022/08/08 09:32:43;;;;;;;0.70;0.40;;;;;;;21.69;92.54;98809.83;1715940;81;28130;-87
2022/08/08 09:35:21;;;;;;;3.92;0.68;;;;;;;21.60;90.87;98798.33;1729119;80;28079;-88
2022/08/08 09:37:50;;;;;;;2.20;0.93;;;;;;;21.55;89.66;98806.48;1733303;80;28189;-88
2022/08/08 09:40:18;;;;;;;;;;;;;;;21.50;88.24;98799.50;1742858;80;28000;-87
2022/08/08 09:42:49;;;;;;;1.20;0.68;;;;;;;21.46;86.61;98797.68;1716606;80;25203;-88
2022/08/08 09:45:18;;;;;;;1.45;0.60;;;;;;;21.51;85.64;98804.67;1732240;81;28046;-87
2022/08/08 09:47:45;;;;;;;1.52;0.62;;;;;;;21.51;84.48;98806.00;1695766;81;28229;-87
2022/08/08 09:50:19;;;;;;;1.80;0.40;;;;;;;21.48;83.41;98807.68;1733041;80;28134;-87
2022/08/08 09:52:51;;;;;;;1.07;0.50;;;;;;;21.41;81.97;98804.01;1735152;80;28101;-87
2022/08/08 09:55:19;;;;;;;1.40;0.72;;;;;;;21.35;80.47;98810.00;1724807;81;28077;-87
2022/08/08 09:57:48;;;;;;;2.45;0.45;;;;;;;21.41;79.82;98800.52;1711174;80;28057;-87
2022/08/08 10:00:18;;;;;;;1.87;0.55;;;;;;;21.54;79.75;98803.52;1739776;80;28044;-88
2022/08/08 10:02:47;;;;;;;2.10;1.00;;;;;;;21.63;79.18;98803.83;1706010;82;28108;-87
2022/08/08 10:05:16;;;;;;;1.15;0.47;;;;;;;21.73;78.81;98804.48;1736468;79;28063;-90
2022/08/08 10:07:54;;;;;;;1.50;0.70;;;;;;;21.86;78.53;98807.47;1755361;78;28080;-90
2022/08/08 10:10:30;;;;;;;1.45;0.50;;;;;;;21.84;77.43;98803.30;1749193;80;28107;-87
2022/08/08 10:12:57;;;;;;;1.85;0.42;;;;;;;21.93;77.10;98803.11;1762929;79;28243;-88
2022/08/08 10:15:25;;;;;;;1.92;0.50;;;;;;;21.99;76.50;98805.13;1774525;78;28069;-87
2022/08/08 10:17:53;;;;;;;3.45;0.60;;;;;;;22.03;75.91;98804.30;1752646;78;28049;-90
2022/08/08 10:20:22;;;;;;;1.85;0.55;;;;;;;21.99;74.97;98798.46;1757080;79;28098;-90
2022/08/08 10:23:03;;;;;;;1.95;0.53;;;;;;;21.96;74.34;98805.48;1755832;79;28132;-88
2022/08/08 10:25:30;;;;;;;2.80;0.70;;;;;;;21.98;73.82;98806.13;1762699;78;28095;-88
2022/08/08 10:27:57;;;;;;;1.62;0.70;;;;;;;22.03;73.20;98798.48;1768421;78;28136;-88
2022/08/08 10:30:25;;;;;;;1.22;0.50;;;;;;;22.14;72.98;98804.44;1769606;79;28093;-87
2022/08/08 10:32:58;;;;;;;0.78;0.45;;;;;;;22.24;72.79;98806.41;1773552;78;28104;-89
2022/08/08 10:35:30;;;;;;;5.08;0.80;;;;;;;22.29;72.40;98809.38;1753957;79;28066;-89
2022/08/08 10:37:59;;;;;;;2.17;0.60;;;;;;;22.32;71.84;98808.52;1749855;79;28143;-90
2022/08/08 10:40:28;;;;;;;1.75;0.57;;;;;;;22.38;71.86;98807.84;1752949;78;28658;-87
2022/08/08 10:42:57;;;;;;;1.17;0.50;;;;;;;22.41;71.61;98816.84;1763309;78;28318;-87
2022/08/08 10:45:23;;;;;;;1.72;0.60;;;;;;;22.51;71.73;98827.30;1756101;78;28106;-88
2022/08/08 10:47:59;;;;;;;1.65;0.60;;;;;;;22.40;70.76;98820.52;1719826;80;28126;-87
2022/08/08 10:50:34;;;;;;;2.85;0.70;;;;;;;22.33;70.17;98822.70;1749592;79;28110;-89
2022/08/08 10:53:02;;;;;;;0.90;0.50;;;;;;;22.28;69.90;98822.38;1733577;80;28154;-87
2022/08/08 10:55:29;;;;;;;0.90;0.50;;;;;;;22.25;69.70;98822.73;1762472;78;28175;-86
2022/08/08 10:57:59;;;;;;;1.30;0.60;;;;;;;22.11;68.92;98819.77;1760246;78;28149;-88
2022/08/08 11:00:26;;;;;;;1.05;0.50;;;;;;;22.05;68.51;98812.94;1710991;80;28080;-87
2022/08/08 11:02:54;;;;;;;0.57;0.42;;;;;;;21.99;68.20;98819.78;1684791;81;28194;-87
2022/08/08 11:05:21;;;;;;;2.27;0.70;;;;;;;21.99;67.70;98821.61;1757933;78;28233;-87
2022/08/08 11:07:53;;;;;;;2.75;0.68;;;;;;;22.02;67.56;98819.46;1759366;78;28069;-88
2022/08/08 11:10:21;;;;;;;3.12;0.80;;;;;;;22.10;67.88;98810.09;1755334;78;28203;-89
2022/08/08 11:12:51;;;;;;;1.42;0.62;;;;;;;22.06;67.42;98810.12;1742251;79;28097;-90
2022/08/08 11:15:20;;;;;;;0.57;0.47;;;;;;;22.03;67.21;98812.30;1766152;79;28125;-88
2022/08/08 11:17:48;;;;;;;0.78;0.40;;;;;;;21.96;66.67;98817.47;1761886;79;28120;-90
2022/08/08 11:20:23;;;;;;;0.90;0.62;;;;;;;21.86;65.98;98822.13;1770527;78;28108;-87
2022/08/08 11:22:58;;;;;;;1.72;0.40;;;;;;;21.79;65.58;98815.80;1760949;78;28098;-87
2022/08/08 11:25:27;;;;;;;1.90;0.60;;;;;;;21.71;65.09;98817.96;1756907;78;28048;-88
2022/08/08 11:27:54;;;;;;;1.77;0.57;;;;;;;21.65;64.84;98818.66;1773627;78;28191;-87
2022/08/08 11:30:25;;;;;;;1.60;0.50;;;;;;;21.66;64.97;98819.47;1752942;78;28127;-87
2022/08/08 11:32:54;;;;;;;0.93;0.60;;;;;;;21.59;64.87;98815.33;1767984;78;28122;-88
2022/08/08 11:35:22;;;;;;;2.30;0.75;;;;;;;21.52;64.67;98818.82;1735498;80;28084;-88
2022/08/08 11:37:48;;;;;;;3.20;0.70;;;;;;;21.44;64.36;98813.52;1734647;80;28078;-87
2022/08/08 11:40:15;;;;;;;1.17;0.53;;;;;;;21.40;64.39;98812.99;1736520;80;28052;-87
2022/08/08 11:42:45;;;;;;;1.45;0.50;;;;;;;21.40;64.65;98807.66;1737416;80;28173;-87
2022/08/08 11:45:12;;;;;;;2.50;0.53;;;;;;;21.45;64.84;98811.16;1751448;80;28094;-88
2022/08/08 11:47:41;;;;;;;1.37;0.50;;;;;;;21.52;65.23;98802.84;1728040;80;28008;-87
2022/08/08 11:50:13;;;;;;;1.92;0.72;;;;;;;21.54;65.32;98807.02;1761820;78;28127;-86
2022/08/08 11:52:40;;;;;;;1.52;0.50;;;;;;;21.56;65.31;98802.33;1760370;78;28140;-87
2022/08/08 11:55:17;;;;;;;1.20;0.60;;;;;;;21.59;65.33;98804.68;1746520;78;28144;-87
2022/08/08 11:57:43;;;;;;;1.17;0.47;;;;;;;21.56;64.83;98805.00;1765195;78;28007;-90